Terminal Aerodrome Forecast
Issued by NWS

Home | Current Version | Previous Version | Text Only | Print | Product List | Glossary On
Versions: 1 2 3 4 5 6 7 8 9 10 11 12 13 14 15 16 17 18 19
000
FTUS45 KTFX 251100
TAFBZN
TAF
KBZN 251120Z 2512/2612 02010KT P6SM VCSH OVC050
      TEMPO 2512/2516 5SM -SN BR SCT020 OVC035
     FM260000 VRB05KT P6SM BKN050=

USA.gov is the U.S. government's official web portal to all federal, state and local government web resources and services.